Time;durP1;ratioP1;P1;durP2;ratioP2;P2;SDS_P1;SDS_P2;PMS_P1;PMS_P2;Temp;Humidity;BMP_temperature;BMP_pressure;BME280_temperature;BME280_humidity;BME280_pressure;Samples;Min_cycle;Max_cycle;Signal;HPM_P1;HPM_P2
2022/03/08 00:02:22;;;;;;;0.40;0.40;;;1.40;60.10;;;;;;5089104;28;20385;-71
2022/03/08 00:04:47;;;;;;;0.40;0.20;;;1.40;59.70;;;;;;5090517;28;20379;-72
2022/03/08 00:07:13;;;;;;;0.40;0.30;;;1.40;60.00;;;;;;5088243;28;20439;-72
2022/03/08 00:09:39;;;;;;;0.40;0.30;;;1.40;59.90;;;;;;5089809;28;20393;-71
2022/03/08 00:12:05;;;;;;;0.50;0.50;;;1.30;60.30;;;;;;5090507;28;20377;-71
2022/03/08 00:14:33;;;;;;;0.40;0.20;;;1.40;60.10;;;;;;5089577;28;20428;-71
2022/03/08 00:16:58;;;;;;;1.10;1.10;;;1.40;59.90;;;;;;5090192;28;20789;-71
2022/03/08 00:19:24;;;;;;;0.40;0.20;;;1.30;60.80;;;;;;5089609;28;20378;-72
2022/03/08 00:21:50;;;;;;;0.50;0.50;;;1.30;60.80;;;;;;5090073;28;20806;-72
2022/03/08 00:24:16;;;;;;;0.90;0.50;;;1.10;60.90;;;;;;5091864;28;20848;-71
2022/03/08 00:26:42;;;;;;;0.40;0.20;;;1.10;61.50;;;;;;5093494;28;20381;-72
2022/03/08 00:29:08;;;;;;;0.40;0.20;;;1.10;61.90;;;;;;5092706;28;20783;-72
2022/03/08 00:31:34;;;;;;;0.80;0.80;;;1.00;62.10;;;;;;5091734;28;20436;-72
2022/03/08 00:34:00;;;;;;;0.80;0.80;;;1.10;62.10;;;;;;5094089;28;20405;-72
2022/03/08 00:36:26;;;;;;;0.47;0.47;;;1.10;61.90;;;;;;5091947;28;20447;-71
2022/03/08 00:38:52;;;;;;;0.40;0.20;;;1.00;61.80;;;;;;5092011;28;20386;-72
2022/03/08 00:41:18;;;;;;;0.40;0.20;;;0.90;62.60;;;;;;5093650;28;20838;-71
2022/03/08 00:43:44;;;;;;;0.40;0.20;;;1.00;62.50;;;;;;5093083;28;20457;-71
2022/03/08 00:46:09;;;;;;;1.10;1.00;;;0.80;62.50;;;;;;5075137;28;20404;-70
2022/03/08 00:48:35;;;;;;;1.20;1.10;;;1.00;63.10;;;;;;5093599;28;20457;-70
2022/03/08 00:51:01;;;;;;;0.70;0.70;;;0.90;62.60;;;;;;5092726;28;20621;-70
2022/03/08 00:53:27;;;;;;;1.00;0.90;;;0.90;63.00;;;;;;5093267;28;20370;-70
2022/03/08 00:55:52;;;;;;;0.40;0.22;;;1.00;63.00;;;;;;5092530;28;20739;-71
2022/03/08 00:58:20;;;;;;;0.40;0.30;;;1.00;62.50;;;;;;5093413;28;20487;-70
2022/03/08 01:00:45;;;;;;;0.40;0.20;;;0.90;62.70;;;;;;5093531;28;20373;-70
2022/03/08 01:03:11;;;;;;;0.40;0.20;;;0.90;63.30;;;;;;5092142;28;20378;-71
2022/03/08 01:05:37;;;;;;;0.40;0.30;;;0.90;63.50;;;;;;5093371;28;20424;-71
2022/03/08 01:08:03;;;;;;;0.40;0.20;;;0.80;63.70;;;;;;5092926;28;20405;-70
2022/03/08 01:10:31;;;;;;;0.40;0.30;;;0.80;63.60;;;;;;5093591;28;20440;-70
2022/03/08 01:12:57;;;;;;;2.10;1.00;;;0.80;63.80;;;;;;5092954;28;20864;-70
2022/03/08 01:15:24;;;;;;;0.40;0.30;;;0.80;63.70;;;;;;5092628;28;20405;-71
2022/03/08 01:17:50;;;;;;;0.70;0.70;;;0.80;64.20;;;;;;5092444;28;20473;-71
2022/03/08 01:20:16;;;;;;;1.20;1.10;;;0.80;63.80;;;;;;5092091;28;20420;-71
2022/03/08 01:22:42;;;;;;;0.80;0.80;;;0.90;63.90;;;;;;5093328;28;20414;-70
2022/03/08 01:25:10;;;;;;;0.40;0.30;;;0.90;63.50;;;;;;5092168;28;20439;-71
2022/03/08 01:27:36;;;;;;;0.70;0.70;;;0.80;63.70;;;;;;5092565;28;20796;-70
2022/03/08 01:30:04;;;;;;;1.00;0.50;;;0.90;64.10;;;;;;5093029;28;20382;-70
2022/03/08 01:32:30;;;;;;;0.50;0.50;;;0.90;64.00;;;;;;5089776;28;20397;-70
2022/03/08 01:34:55;;;;;;;0.40;0.20;;;0.80;63.80;;;;;;5092452;28;20382;-70
2022/03/08 01:37:21;;;;;;;1.10;1.00;;;0.70;64.70;;;;;;5091363;28;20430;-71
2022/03/08 01:39:47;;;;;;;1.60;1.10;;;0.70;65.10;;;;;;5092955;28;20383;-70
2022/03/08 01:42:15;;;;;;;0.40;0.20;;;0.70;66.10;;;;;;5092665;28;20370;-70
2022/03/08 01:44:43;;;;;;;0.40;0.30;;;0.60;66.50;;;;;;5091651;28;21059;-70
2022/03/08 01:47:16;;;;;;;0.40;0.20;;;0.60;67.20;;;;;;5092806;28;20440;-70
2022/03/08 01:49:43;;;;;;;0.80;0.50;;;0.50;67.50;;;;;;5091484;28;20791;-71
2022/03/08 01:52:09;;;;;;;0.80;0.80;;;0.40;68.10;;;;;;5092917;28;20378;-70
2022/03/08 01:54:35;;;;;;;0.40;0.30;;;0.50;69.50;;;;;;5090560;28;20452;-71
2022/03/08 01:57:01;;;;;;;0.40;0.30;;;0.40;68.40;;;;;;5092338;28;20406;-71
2022/03/08 01:59:26;;;;;;;0.40;0.20;;;0.30;69.20;;;;;;5090954;28;20386;-70
2022/03/08 02:01:52;;;;;;;0.40;0.20;;;0.20;69.60;;;;;;5089833;28;20469;-70
2022/03/08 02:04:18;;;;;;;1.50;1.40;;;0.30;70.70;;;;;;5091069;28;20453;-70
2022/03/08 02:06:45;;;;;;;0.40;0.30;;;0.20;70.60;;;;;;5090766;28;20953;-71
2022/03/08 02:09:11;;;;;;;0.40;0.20;;;0.10;72.60;;;;;;5091525;28;20377;-70
2022/03/08 02:11:37;;;;;;;1.20;0.70;;;0.20;72.70;;;;;;5092122;28;20458;-70
2022/03/08 02:14:02;;;;;;;0.70;0.70;;;0.10;72.80;;;;;;5091341;28;20405;-70
2022/03/08 02:16:28;;;;;;;0.60;0.50;;;0.10;73.50;;;;;;5091511;28;20378;-70
2022/03/08 02:18:54;;;;;;;0.40;0.20;;;0.10;73.60;;;;;;5089377;28;20398;-71
2022/03/08 02:21:20;;;;;;;0.40;0.20;;;0.00;73.50;;;;;;5090868;28;20878;-70
2022/03/08 02:23:46;;;;;;;0.40;0.28;;;0.00;75.30;;;;;;5091134;28;20421;-71
2022/03/08 02:26:12;;;;;;;0.60;0.60;;;0.30;74.70;;;;;;5091732;28;20373;-71
2022/03/08 02:28:39;;;;;;;0.43;0.43;;;0.10;74.50;;;;;;5090719;28;20842;-71
2022/03/08 02:31:05;;;;;;;0.70;0.70;;;0.00;75.20;;;;;;5090861;28;20543;-71
2022/03/08 02:33:30;;;;;;;0.40;0.30;;;-0.10;75.70;;;;;;5091690;28;20488;-71
2022/03/08 02:35:56;;;;;;;0.40;0.20;;;-0.20;76.70;;;;;;5090650;28;20382;-71
2022/03/08 02:38:22;;;;;;;1.70;1.00;;;-0.10;77.90;;;;;;5091499;28;20461;-71
2022/03/08 02:40:48;;;;;;;0.40;0.20;;;-0.20;78.50;;;;;;5091331;28;20431;-71
2022/03/08 02:43:13;;;;;;;0.40;0.20;;;-0.30;78.50;;;;;;5090514;28;20382;-71
2022/03/08 02:45:40;;;;;;;0.40;0.20;;;-0.20;78.90;;;;;;5090845;28;20378;-71
2022/03/08 02:48:07;;;;;;;0.40;0.40;;;-0.30;78.90;;;;;;5089587;28;20374;-71
2022/03/08 02:50:33;;;;;;;0.40;0.20;;;-0.40;80.10;;;;;;5091324;28;20397;-71
2022/03/08 02:52:59;;;;;;;0.40;0.20;;;-0.40;82.00;;;;;;5091102;28;20397;-71
2022/03/08 02:55:27;;;;;;;1.10;1.10;;;-0.50;83.10;;;;;;5090065;28;20393;-71
2022/03/08 02:57:54;;;;;;;0.52;0.52;;;-0.40;82.40;;;;;;5091055;28;20406;-71
2022/03/08 03:00:22;;;;;;;0.47;0.27;;;-0.40;83.40;;;;;;5070067;28;20837;-71
2022/03/08 03:02:48;;;;;;;0.40;0.30;;;-0.40;83.80;;;;;;5069138;28;20453;-71
2022/03/08 03:05:14;;;;;;;0.40;0.20;;;-0.40;83.40;;;;;;5070197;28;20380;-72
2022/03/08 03:07:41;;;;;;;0.70;0.60;;;-0.40;81.80;;;;;;5070535;28;20422;-71
2022/03/08 03:10:08;;;;;;;0.40;0.30;;;-0.30;83.10;;;;;;5070562;28;20445;-71
2022/03/08 03:12:34;;;;;;;0.40;0.30;;;-0.40;83.50;;;;;;5069265;28;20414;-71
2022/03/08 03:15:01;;;;;;;0.40;0.20;;;-0.50;84.10;;;;;;5069288;28;20372;-71
2022/03/08 03:17:27;;;;;;;0.80;0.70;;;-0.50;84.50;;;;;;5069596;28;20875;-71
2022/03/08 03:19:52;;;;;;;0.40;0.20;;;-0.50;84.40;;;;;;5070351;28;20467;-71
2022/03/08 03:22:18;;;;;;;0.40;0.20;;;-0.50;83.50;;;;;;5069251;28;20460;-71
2022/03/08 03:24:44;;;;;;;0.90;0.90;;;-0.50;84.20;;;;;;5068395;28;20549;-71
2022/03/08 03:27:11;;;;;;;0.90;0.80;;;-0.50;85.00;;;;;;5070710;28;20380;-71
2022/03/08 03:29:37;;;;;;;0.40;0.30;;;-0.60;86.00;;;;;;5069984;28;20528;-72
2022/03/08 03:32:03;;;;;;;0.40;0.30;;;-0.50;85.80;;;;;;5069212;28;20481;-72
2022/03/08 03:34:28;;;;;;;0.40;0.20;;;-0.50;86.80;;;;;;5068591;28;20396;-71
2022/03/08 03:36:54;;;;;;;0.40;0.20;;;-0.60;87.10;;;;;;5068916;28;20451;-72
2022/03/08 03:39:20;;;;;;;3.90;1.00;;;-0.60;85.90;;;;;;5070331;28;20376;-72
2022/03/08 03:41:45;;;;;;;1.10;1.00;;;-0.50;84.50;;;;;;5068133;28;20388;-73
2022/03/08 03:44:11;;;;;;;0.40;0.20;;;-0.60;85.20;;;;;;5070038;28;20380;-72
2022/03/08 03:46:37;;;;;;;0.40;0.30;;;-0.60;85.80;;;;;;5069999;28;20384;-73
2022/03/08 03:49:03;;;;;;;0.40;0.30;;;-0.70;86.60;;;;;;5069537;28;20372;-72
2022/03/08 03:51:29;;;;;;;0.40;0.20;;;-0.70;86.70;;;;;;5070278;28;20495;-71
2022/03/08 03:53:54;;;;;;;0.40;0.30;;;-0.60;87.20;;;;;;5069335;28;20457;-72
2022/03/08 03:56:20;;;;;;;0.50;0.50;;;-0.70;87.60;;;;;;5069972;28;20454;-72
2022/03/08 03:58:46;;;;;;;0.40;0.27;;;-0.60;87.10;;;;;;5077140;28;20410;-73
2022/03/08 04:01:11;;;;;;;0.40;0.40;;;-0.70;88.20;;;;;;5094104;28;20374;-72
2022/03/08 04:03:37;;;;;;;0.40;0.20;;;-0.70;90.00;;;;;;5094054;28;20382;-72
2022/03/08 04:06:03;;;;;;;0.40;0.20;;;-0.70;88.30;;;;;;5093262;28;20410;-71
2022/03/08 04:08:28;;;;;;;0.40;0.20;;;-0.70;89.30;;;;;;5093656;28;20394;-71
2022/03/08 04:10:54;;;;;;;0.40;0.20;;;-0.80;88.40;;;;;;5093875;28;20374;-72
2022/03/08 04:13:20;;;;;;;2.50;0.80;;;-0.80;89.50;;;;;;5094044;28;20374;-71
2022/03/08 04:15:46;;;;;;;0.40;0.20;;;-0.80;88.20;;;;;;5093891;28;20826;-71
2022/03/08 04:18:12;;;;;;;0.40;0.30;;;-0.80;89.30;;;;;;5092475;28;20405;-71
2022/03/08 04:20:38;;;;;;;0.43;0.22;;;-0.80;89.50;;;;;;5092560;28;20378;-71
2022/03/08 04:23:04;;;;;;;0.40;0.20;;;-0.80;89.10;;;;;;5093228;28;20423;-71
2022/03/08 04:25:30;;;;;;;0.70;0.50;;;-0.70;88.60;;;;;;5093913;28;20382;-70
2022/03/08 04:27:55;;;;;;;0.40;0.20;;;-0.80;89.20;;;;;;5092398;28;20397;-70
2022/03/08 04:30:21;;;;;;;0.80;0.80;;;-0.80;89.50;;;;;;5092898;28;20382;-70
2022/03/08 04:32:50;;;;;;;0.70;0.70;;;-0.80;89.20;;;;;;5094310;28;20389;-70
2022/03/08 04:35:17;;;;;;;0.40;0.20;;;-0.80;89.40;;;;;;5093029;28;20855;-71
2022/03/08 04:37:42;;;;;;;0.60;0.60;;;-0.80;88.50;;;;;;5093616;28;20429;-70
2022/03/08 04:40:09;;;;;;;0.40;0.20;;;-0.80;88.20;;;;;;5092665;28;20733;-70
2022/03/08 04:42:35;;;;;;;0.40;0.30;;;-0.80;88.80;;;;;;5093150;28;20717;-70
2022/03/08 04:45:00;;;;;;;0.40;0.20;;;-0.70;89.50;;;;;;5093940;28;20375;-70
2022/03/08 04:47:26;;;;;;;0.40;0.30;;;-0.70;88.40;;;;;;5093225;28;20378;-71
2022/03/08 04:49:52;;;;;;;0.40;0.30;;;-0.80;90.00;;;;;;5093770;28;20374;-70
2022/03/08 04:52:17;;;;;;;0.80;0.80;;;-0.90;91.00;;;;;;5093326;28;20894;-71
2022/03/08 04:54:43;;;;;;;0.40;0.30;;;-0.90;91.40;;;;;;5093056;28;20386;-71
2022/03/08 04:57:09;;;;;;;0.40;0.20;;;-0.90;91.50;;;;;;5093459;28;20398;-70
2022/03/08 04:59:34;;;;;;;0.40;0.20;;;-0.80;91.30;;;;;;5092424;28;20393;-70
2022/03/08 05:02:00;;;;;;;0.40;0.20;;;-0.80;90.90;;;;;;5093853;28;20400;-70
2022/03/08 05:04:26;;;;;;;0.40;0.20;;;-0.70;90.70;;;;;;5092801;28;20750;-71
2022/03/08 05:06:51;;;;;;;0.70;0.60;;;-0.70;90.50;;;;;;5093443;28;20390;-70
2022/03/08 05:09:17;;;;;;;0.50;0.50;;;-0.60;91.10;;;;;;5092659;28;20780;-70
2022/03/08 05:11:43;;;;;;;0.40;0.20;;;-0.60;90.70;;;;;;5090819;28;20382;-71
2022/03/08 05:14:09;;;;;;;0.40;0.20;;;-0.80;91.10;;;;;;5093353;28;20496;-71
2022/03/08 05:16:35;;;;;;;0.40;0.20;;;-0.90;91.80;;;;;;5092973;28;20925;-71
2022/03/08 05:19:01;;;;;;;0.40;0.20;;;-0.70;92.50;;;;;;5092784;28;20471;-70
2022/03/08 05:21:26;;;;;;;0.40;0.30;;;-0.80;92.60;;;;;;5092924;28;20414;-70
2022/03/08 05:23:52;;;;;;;0.65;0.65;;;-0.90;92.40;;;;;;5092486;28;20408;-70
2022/03/08 05:26:18;;;;;;;0.40;0.20;;;-0.70;91.70;;;;;;5091647;28;20720;-71
2022/03/08 05:28:44;;;;;;;0.40;0.25;;;-0.80;91.60;;;;;;5092182;28;20378;-71
2022/03/08 05:31:13;;;;;;;0.40;0.30;;;-0.80;92.20;;;;;;5092502;28;20393;-70
2022/03/08 05:33:39;;;;;;;0.40;0.20;;;0.30;92.00;;;;;;5093167;28;20418;-70
2022/03/08 05:36:05;;;;;;;0.40;0.20;;;-0.80;92.70;;;;;;5092074;28;20435;-70
2022/03/08 05:38:31;;;;;;;0.40;0.20;;;-1.10;93.60;;;;;;5092576;28;20426;-70
2022/03/08 05:40:56;;;;;;;0.40;0.20;;;-1.00;94.40;;;;;;5091753;28;20378;-70
2022/03/08 05:43:22;;;;;;;0.40;0.40;;;-0.90;94.20;;;;;;5092806;28;20854;-70
2022/03/08 05:45:48;;;;;;;0.40;0.20;;;-0.90;93.50;;;;;;5092761;28;20727;-70
2022/03/08 05:48:14;;;;;;;0.50;0.50;;;-0.90;93.40;;;;;;5091680;28;20385;-70
2022/03/08 05:50:40;;;;;;;0.40;0.32;;;-0.90;92.90;;;;;;5092629;28;20374;-71
2022/03/08 05:53:05;;;;;;;0.40;0.40;;;-1.00;94.20;;;;;;5091326;28;20390;-71
2022/03/08 05:55:31;;;;;;;0.40;0.40;;;-1.00;94.60;;;;;;5091459;28;20524;-71
2022/03/08 05:57:57;;;;;;;0.68;0.68;;;-0.90;93.80;;;;;;5092489;28;20406;-70
2022/03/08 06:00:23;;;;;;;0.60;0.60;;;-0.90;93.00;;;;;;5092067;28;20380;-71
2022/03/08 06:02:48;;;;;;;1.08;0.63;;;-0.80;93.60;;;;;;5091915;28;20461;-71
2022/03/08 06:05:14;;;;;;;0.40;0.20;;;-0.70;91.80;;;;;;5091719;28;20378;-71
2022/03/08 06:07:40;;;;;;;0.60;0.60;;;-0.70;91.20;;;;;;5074120;28;20882;-71
2022/03/08 06:10:08;;;;;;;1.00;0.60;;;-0.70;90.10;;;;;;5091959;28;20385;-72
2022/03/08 06:12:34;;;;;;;0.80;0.80;;;-0.50;90.20;;;;;;5092000;28;20378;-70
2022/03/08 06:15:00;;;;;;;0.40;0.30;;;-0.50;90.40;;;;;;5092163;28;20382;-71
2022/03/08 06:17:26;;;;;;;0.40;0.20;;;-0.60;90.30;;;;;;5090955;28;20715;-71
2022/03/08 06:19:52;;;;;;;0.90;0.90;;;-0.60;90.60;;;;;;5090037;28;20394;-70
2022/03/08 06:22:17;;;;;;;0.40;0.40;;;-0.50;90.30;;;;;;5090541;28;20733;-71
2022/03/08 06:24:43;;;;;;;0.60;0.50;;;-0.60;89.40;;;;;;5091744;28;20370;-71
2022/03/08 06:27:09;;;;;;;0.50;0.50;;;-0.50;88.60;;;;;;5076217;28;20395;-70
2022/03/08 06:29:35;;;;;;;1.30;0.90;;;-0.40;88.70;;;;;;5070564;28;20744;-71
2022/03/08 06:32:00;;;;;;;0.40;0.20;;;-0.40;89.60;;;;;;5071492;28;20380;-70
2022/03/08 06:34:26;;;;;;;0.40;0.20;;;-0.50;88.40;;;;;;5070723;28;20419;-71
2022/03/08 06:36:52;;;;;;;0.40;0.20;;;-0.40;87.80;;;;;;5070828;28;20403;-71
2022/03/08 06:39:17;;;;;;;0.40;0.20;;;-0.40;88.00;;;;;;5071128;28;20464;-70
2022/03/08 06:41:43;;;;;;;0.40;0.20;;;-0.40;88.40;;;;;;5070718;28;20395;-71
2022/03/08 06:44:09;;;;;;;0.40;0.30;;;-0.30;87.40;;;;;;5103982;28;20725;-71
2022/03/08 06:46:36;;;;;;;0.60;0.60;;;-0.30;87.00;;;;;;5070701;28;20470;-71
2022/03/08 06:49:03;;;;;;;0.40;0.40;;;-0.30;87.80;;;;;;5071701;28;20548;-70
2022/03/08 06:51:28;;;;;;;0.70;0.70;;;-0.20;87.00;;;;;;5071454;28;20372;-71
2022/03/08 06:53:54;;;;;;;0.73;0.73;;;-0.10;86.60;;;;;;5070868;28;21230;-70
2022/03/08 06:56:20;;;;;;;0.40;0.20;;;0.00;86.80;;;;;;5071117;28;20743;-70
2022/03/08 06:58:46;;;;;;;0.60;0.50;;;0.00;88.30;;;;;;5070165;28;20411;-70
2022/03/08 07:01:11;;;;;;;2.08;1.42;;;-0.20;90.30;;;;;;5071117;28;20388;-71
2022/03/08 07:03:37;;;;;;;0.50;0.50;;;0.00;89.50;;;;;;5070867;28;20463;-72
2022/03/08 07:06:05;;;;;;;0.80;0.60;;;0.00;89.60;;;;;;5069376;28;20447;-72
2022/03/08 07:08:31;;;;;;;0.40;0.40;;;-0.10;89.40;;;;;;5070605;28;20403;-72
2022/03/08 07:10:57;;;;;;;0.40;0.20;;;-0.10;90.30;;;;;;5068529;28;20856;-71
2022/03/08 07:13:22;;;;;;;0.40;0.40;;;-0.20;91.10;;;;;;5070813;28;20384;-72
2022/03/08 07:15:49;;;;;;;0.40;0.20;;;-0.10;90.60;;;;;;5070015;28;20391;-71
2022/03/08 07:18:14;;;;;;;0.40;0.30;;;-0.10;90.10;;;;;;5071005;28;20403;-71
2022/03/08 07:20:40;;;;;;;0.40;0.20;;;-0.10;90.10;;;;;;5070729;28;20797;-72
2022/03/08 07:23:06;;;;;;;0.80;0.80;;;0.00;90.20;;;;;;5069443;28;20740;-72
2022/03/08 07:25:32;;;;;;;0.40;0.20;;;0.10;88.50;;;;;;5070628;28;20748;-72
2022/03/08 07:27:57;;;;;;;0.40;0.30;;;0.10;88.00;;;;;;5069882;28;20395;-72
2022/03/08 07:30:23;;;;;;;0.40;0.20;;;0.30;87.80;;;;;;5069677;28;20521;-72
2022/03/08 07:32:51;;;;;;;0.40;0.20;;;0.40;86.20;;;;;;5069304;28;20824;-72
2022/03/08 07:35:17;;;;;;;0.40;0.20;;;0.30;86.80;;;;;;5069693;28;21037;-71
2022/03/08 07:37:43;;;;;;;0.40;0.20;;;0.30;85.90;;;;;;5070313;28;20455;-72
2022/03/08 07:40:09;;;;;;;0.50;0.40;;;0.20;86.40;;;;;;5068827;28;20383;-72
2022/03/08 07:42:35;;;;;;;0.40;0.20;;;0.10;86.70;;;;;;5070903;28;20458;-71
2022/03/08 07:45:01;;;;;;;0.40;0.40;;;0.20;87.00;;;;;;5069431;28;20380;-72
2022/03/08 07:47:26;;;;;;;0.70;0.70;;;0.30;86.80;;;;;;5069792;28;20448;-72
2022/03/08 07:49:52;;;;;;;0.40;0.30;;;0.40;86.30;;;;;;5070682;28;20924;-71
2022/03/08 07:52:18;;;;;;;0.40;0.20;;;0.40;84.90;;;;;;5069458;28;20383;-73
2022/03/08 07:54:43;;;;;;;0.40;0.20;;;0.50;84.40;;;;;;5069281;28;20395;-72
2022/03/08 07:57:09;;;;;;;0.50;0.50;;;0.50;84.70;;;;;;5070052;28;20403;-72
2022/03/08 07:59:35;;;;;;;0.40;0.20;;;0.60;84.80;;;;;;5070201;28;20860;-71
2022/03/08 08:02:00;;;;;;;0.40;0.20;;;0.70;84.00;;;;;;5070245;28;20421;-72
2022/03/08 08:04:26;;;;;;;0.43;0.40;;;0.70;83.70;;;;;;5068412;28;20395;-72
2022/03/08 08:06:52;;;;;;;0.60;0.60;;;0.80;82.50;;;;;;5070204;28;20819;-71
2022/03/08 08:09:18;;;;;;;0.40;0.30;;;0.90;81.90;;;;;;5069977;28;20387;-72
2022/03/08 08:11:44;;;;;;;0.40;0.20;;;1.00;81.60;;;;;;5069730;28;20453;-71
2022/03/08 08:14:09;;;;;;;0.40;0.40;;;1.00;80.70;;;;;;5070302;28;20848;-71
2022/03/08 08:16:35;;;;;;;0.47;0.28;;;1.10;80.60;;;;;;5069779;28;20388;-71
2022/03/08 08:19:01;;;;;;;0.60;0.60;;;1.30;79.90;;;;;;5070095;28;20410;-71
2022/03/08 08:21:27;;;;;;;0.40;0.30;;;1.20;79.20;;;;;;5069519;28;20383;-72
2022/03/08 08:23:53;;;;;;;1.70;1.00;;;1.40;79.40;;;;;;5070328;28;20379;-73
2022/03/08 08:26:18;;;;;;;0.40;0.30;;;1.50;78.50;;;;;;5070170;28;20460;-71
2022/03/08 08:28:44;;;;;;;0.40;0.20;;;1.60;77.00;;;;;;5069043;28;20403;-72
2022/03/08 08:31:10;;;;;;;0.40;0.20;;;1.70;77.90;;;;;;5070272;28;20415;-72
2022/03/08 08:33:36;;;;;;;1.20;1.10;;;1.80;77.60;;;;;;5069333;28;20941;-72
2022/03/08 08:36:02;;;;;;;0.40;0.20;;;1.90;77.60;;;;;;5070123;28;20380;-72
2022/03/08 08:38:28;;;;;;;0.40;0.20;;;1.90;77.20;;;;;;5069629;28;20423;-72
2022/03/08 08:40:54;;;;;;;0.40;0.30;;;2.10;77.10;;;;;;5069331;28;21060;-72
2022/03/08 08:43:20;;;;;;;0.40;0.30;;;2.20;76.60;;;;;;5069672;28;20376;-72
2022/03/08 08:45:52;;;;;;;0.80;0.80;;;2.20;76.80;;;;;;5071716;28;20376;-72
2022/03/08 08:48:19;;;;;;;1.00;0.90;;;2.20;77.50;;;;;;5073708;28;20379;-72
2022/03/08 08:50:45;;;;;;;0.70;0.70;;;2.20;77.80;;;;;;5072513;28;20469;-73
2022/03/08 08:53:10;;;;;;;0.40;0.40;;;2.00;77.40;;;;;;5073262;28;20372;-72
2022/03/08 08:55:37;;;;;;;1.10;1.00;;;2.10;78.00;;;;;;5073582;28;20742;-72
2022/03/08 08:58:06;;;;;;;1.00;0.90;;;2.10;77.20;;;;;;5073465;28;20403;-72
2022/03/08 09:00:32;;;;;;;0.40;0.30;;;2.30;77.80;;;;;;5093733;28;20386;-72
2022/03/08 09:02:57;;;;;;;1.80;1.67;;;2.10;77.70;;;;;;5092745;28;20401;-72
2022/03/08 09:05:24;;;;;;;0.50;0.50;;;2.40;77.80;;;;;;5093591;28;20394;-71
2022/03/08 09:07:50;;;;;;;0.70;0.70;;;2.40;76.80;;;;;;5092714;28;20893;-73
2022/03/08 09:10:16;;;;;;;1.10;1.10;;;2.40;76.60;;;;;;5093244;28;20402;-72
2022/03/08 09:12:51;;;;;;;0.40;0.20;;;2.50;77.30;;;;;;5093497;28;20378;-72
2022/03/08 09:15:21;;;;;;;0.50;0.50;;;2.50;77.00;;;;;;5093000;28;20384;-72
2022/03/08 09:17:47;;;;;;;0.40;0.30;;;2.60;76.40;;;;;;5093347;28;20409;-72
2022/03/08 09:20:13;;;;;;;0.40;0.30;;;2.40;76.50;;;;;;5092176;28;20878;-72
2022/03/08 09:22:40;;;;;;;0.50;0.50;;;2.50;76.80;;;;;;5091814;28;20394;-72
2022/03/08 09:25:07;;;;;;;1.10;0.60;;;2.50;76.10;;;;;;5092512;28;20393;-73
2022/03/08 09:27:34;;;;;;;0.50;0.50;;;2.50;76.20;;;;;;5093253;28;20389;-72
2022/03/08 09:30:04;;;;;;;0.40;0.30;;;2.60;75.50;;;;;;5093486;28;20746;-72
2022/03/08 09:32:30;;;;;;;0.50;0.50;;;2.70;75.50;;;;;;5093013;28;20386;-72
2022/03/08 09:34:56;;;;;;;0.40;0.40;;;2.80;75.80;;;;;;5093230;28;20378;-72
2022/03/08 09:37:22;;;;;;;0.40;0.30;;;2.60;74.80;;;;;;5091270;28;20876;-73
2022/03/08 09:39:48;;;;;;;0.40;0.40;;;3.00;74.10;;;;;;5093229;28;20386;-72
2022/03/08 09:42:14;;;;;;;1.90;1.80;;;3.00;73.90;;;;;;5092034;28;20374;-73
2022/03/08 09:44:40;;;;;;;1.20;1.10;;;2.90;73.30;;;;;;5092694;28;20718;-72
2022/03/08 09:47:06;;;;;;;0.80;0.80;;;3.10;73.00;;;;;;5091982;28;20400;-72
2022/03/08 09:49:32;;;;;;;0.40;0.30;;;3.10;73.00;;;;;;5091864;28;21007;-73
2022/03/08 09:51:58;;;;;;;0.40;0.20;;;3.20;72.60;;;;;;5092594;28;20461;-72
2022/03/08 09:54:24;;;;;;;0.40;0.40;;;3.20;71.50;;;;;;5091527;28;20378;-72
2022/03/08 09:56:51;;;;;;;0.40;0.20;;;3.20;71.00;;;;;;5092647;28;20378;-72
2022/03/08 09:59:18;;;;;;;0.60;0.60;;;3.10;70.30;;;;;;5092456;28;20408;-72
2022/03/08 10:01:46;;;;;;;0.85;0.47;;;3.20;70.10;;;;;;5092186;28;20409;-72
2022/03/08 10:04:17;;;;;;;1.30;1.30;;;3.20;69.30;;;;;;5092141;28;20478;-72
2022/03/08 10:06:44;;;;;;;1.80;0.80;;;3.20;69.90;;;;;;5091342;28;20647;-73
2022/03/08 10:09:18;;;;;;;1.30;0.80;;;3.30;70.00;;;;;;5092233;28;20374;-72
2022/03/08 10:11:44;;;;;;;0.43;0.32;;;3.50;68.80;;;;;;5090215;28;20774;-73
2022/03/08 10:14:26;;;;;;;0.40;0.40;;;3.40;67.80;;;;;;5090892;28;20911;-72
2022/03/08 10:16:53;;;;;;;0.90;0.70;;;3.70;68.10;;;;;;5091756;28;20374;-72
2022/03/08 10:19:19;;;;;;;0.40;0.30;;;3.70;67.30;;;;;;5092150;28;20695;-72
2022/03/08 10:21:51;;;;;;;0.40;0.38;;;3.80;67.70;;;;;;5091038;28;20385;-72
2022/03/08 10:24:26;;;;;;;1.10;1.00;;;3.90;68.10;;;;;;5092313;28;20396;-72
2022/03/08 10:27:06;;;;;;;0.40;0.30;;;4.00;68.70;;;;;;5091867;28;20580;-72
2022/03/08 10:29:37;;;;;;;0.90;0.90;;;4.00;69.60;;;;;;5090781;28;20841;-73
2022/03/08 10:32:18;;;;;;;0.90;0.90;;;4.00;70.30;;;;;;5092151;28;20386;-73
2022/03/08 10:34:46;;;;;;;0.63;0.43;;;4.00;69.70;;;;;;5090710;28;20477;-73
2022/03/08 10:37:17;;;;;;;0.70;0.70;;;4.10;70.20;;;;;;5091262;28;20448;-73
2022/03/08 10:39:55;;;;;;;1.30;0.60;;;4.10;70.00;;;;;;5091189;28;20378;-74
2022/03/08 10:42:24;;;;;;;0.47;0.45;;;4.10;70.50;;;;;;5090710;28;20770;-72
2022/03/08 10:44:50;;;;;;;1.30;1.20;;;4.10;69.90;;;;;;5090620;28;20386;-74
2022/03/08 10:47:16;;;;;;;0.40;0.20;;;4.20;70.40;;;;;;5091344;28;20382;-72
2022/03/08 10:49:57;;;;;;;1.40;0.90;;;4.40;70.30;;;;;;5091194;28;20375;-72
2022/03/08 10:52:34;;;;;;;0.40;0.40;;;4.60;69.40;;;;;;5091539;28;20384;-72
2022/03/08 10:55:16;;;;;;;0.75;0.75;;;4.60;69.30;;;;;;5090670;28;20374;-72
2022/03/08 10:57:45;;;;;;;0.70;0.70;;;4.80;68.10;;;;;;5091153;28;20410;-71
2022/03/08 11:00:15;;;;;;;1.45;1.35;;;4.50;68.20;;;;;;5090485;28;20378;-72
2022/03/08 11:02:46;;;;;;;0.70;0.70;;;4.70;68.60;;;;;;5091195;28;20424;-72
2022/03/08 11:05:13;;;;;;;2.70;1.50;;;4.80;67.70;;;;;;5090484;28;20393;-72
2022/03/08 11:07:39;;;;;;;2.10;1.30;;;4.90;68.00;;;;;;5090608;28;20475;-72
2022/03/08 11:10:08;;;;;;;1.40;1.30;;;5.30;67.20;;;;;;5090290;28;20894;-72
2022/03/08 11:12:35;;;;;;;0.45;0.38;;;5.30;65.40;;;;;;5091264;28;20378;-73
2022/03/08 11:15:02;;;;;;;0.80;0.60;;;5.40;65.30;;;;;;5090432;28;20456;-72
2022/03/08 11:17:28;;;;;;;0.70;0.70;;;5.30;64.70;;;;;;5091263;28;20463;-72
2022/03/08 11:19:56;;;;;;;0.70;0.70;;;5.70;65.30;;;;;;5091100;28;20454;-72
2022/03/08 11:22:23;;;;;;;0.40;0.20;;;5.50;63.30;;;;;;5088905;28;20379;-72
2022/03/08 11:24:50;;;;;;;0.80;0.80;;;5.80;63.90;;;;;;5090726;28;20414;-72
2022/03/08 11:27:16;;;;;;;1.10;1.10;;;6.00;61.70;;;;;;5089987;28;20801;-72
2022/03/08 11:29:42;;;;;;;0.68;0.55;;;6.50;60.90;;;;;;5090520;28;20385;-72
2022/03/08 11:32:14;;;;;;;1.00;0.70;;;6.00;59.60;;;;;;5091015;28;20382;-73
2022/03/08 11:34:54;;;;;;;0.40;0.40;;;6.50;60.20;;;;;;5091011;28;20454;-73
2022/03/08 11:37:23;;;;;;;1.60;1.10;;;6.60;59.80;;;;;;5089581;28;20821;-73
2022/03/08 11:40:19;;;;;;;0.50;0.50;;;7.70;58.10;;;;;;5090561;28;20477;-73
2022/03/08 11:42:50;;;;;;;0.60;0.60;;;7.80;57.20;;;;;;5088846;28;20404;-71
2022/03/08 11:45:27;;;;;;;0.40;0.30;;;8.50;54.40;;;;;;5088432;28;20394;-73
2022/03/08 11:47:54;;;;;;;0.40;0.20;;;9.20;53.60;;;;;;5090688;28;20386;-72
2022/03/08 11:50:23;;;;;;;0.40;0.30;;;8.80;51.60;;;;;;5089930;28;20400;-73
2022/03/08 11:53:06;;;;;;;0.40;0.30;;;9.40;52.10;;;;;;5090617;28;20418;-73
2022/03/08 11:55:48;;;;;;;0.70;0.70;;;10.00;50.00;;;;;;5088503;28;20858;-73
2022/03/08 11:58:19;;;;;;;0.60;0.60;;;10.10;49.70;;;;;;5090708;28;20428;-72
2022/03/08 12:00:53;;;;;;;1.08;1.02;;;10.00;50.90;;;;;;5089798;28;20386;-72
2022/03/08 12:03:22;;;;;;;1.20;1.10;;;10.00;49.50;;;;;;5090944;28;20465;-72
2022/03/08 12:06:02;;;;;;;0.55;0.45;;;10.30;48.80;;;;;;5088459;28;20388;-72
2022/03/08 12:08:27;;;;;;;0.80;0.80;;;11.20;46.80;;;;;;5088749;28;20410;-72
2022/03/08 12:11:00;;;;;;;0.80;0.60;;;11.10;46.90;;;;;;5089994;28;20424;-72
2022/03/08 12:13:27;;;;;;;0.40;0.30;;;10.30;44.70;;;;;;5089476;28;20807;-72
2022/03/08 12:16:08;;;;;;;0.40;0.40;;;11.10;45.60;;;;;;5090166;28;20378;-72
2022/03/08 12:18:49;;;;;;;0.40;0.30;;;10.50;45.40;;;;;;5090018;28;20414;-73
2022/03/08 12:21:15;;;;;;;0.67;0.67;;;11.00;46.00;;;;;;5092495;28;20386;-72
2022/03/08 12:23:53;;;;;;;0.40;0.30;;;11.10;44.40;;;;;;5093548;28;20711;-72
2022/03/08 12:26:33;;;;;;;0.60;0.40;;;10.30;43.60;;;;;;5094523;28;20784;-71
2022/03/08 12:29:05;;;;;;;0.40;0.30;;;10.50;43.80;;;;;;5093445;28;20475;-72
2022/03/08 12:31:31;;;;;;;0.40;0.30;;;11.60;46.90;;;;;;5094273;28;20425;-72
2022/03/08 12:34:02;;;;;;;0.40;0.30;;;11.30;45.00;;;;;;5093359;28;20382;-73
2022/03/08 12:36:27;;;;;;;0.40;0.30;;;11.40;46.40;;;;;;5093816;28;20439;-72
2022/03/08 12:38:54;;;;;;;0.40;0.30;;;11.50;45.40;;;;;;5093031;28;20850;-72
2022/03/08 12:41:27;;;;;;;1.40;0.70;;;12.30;42.70;;;;;;5093897;28;20393;-71
2022/03/08 12:44:00;;;;;;;0.50;0.45;;;11.40;42.20;;;;;;5092965;28;20474;-73
2022/03/08 12:46:27;;;;;;;1.60;0.70;;;10.90;41.60;;;;;;5093523;28;20738;-72
2022/03/08 12:48:54;;;;;;;0.60;0.60;;;12.00;42.70;;;;;;5093016;28;20396;-72
2022/03/08 12:51:23;;;;;;;1.60;0.50;;;11.30;42.40;;;;;;5093759;28;20367;-73
2022/03/08 12:53:59;;;;;;;0.85;0.85;;;12.00;41.80;;;;;;5093682;28;20370;-73